createdAt,value
2018-06-24T00:00:06.463Z,5.40
2018-06-24T00:02:35.538Z,3.77
2018-06-24T00:05:04.638Z,4.20
2018-06-24T00:07:33.716Z,4.27
2018-06-24T00:10:02.783Z,3.83
2018-06-24T00:12:31.910Z,4.90
2018-06-24T00:15:00.976Z,3.60
2018-06-24T00:17:30.088Z,4.67
2018-06-24T00:19:58.902Z,3.83
2018-06-24T00:22:27.910Z,3.70
2018-06-24T00:24:57.358Z,5.37
2018-06-24T00:27:26.735Z,4.60
2018-06-24T00:29:55.846Z,4.37
2018-06-24T00:32:24.919Z,4.60
2018-06-24T00:34:53.991Z,3.83
2018-06-24T00:37:23.034Z,4.57
2018-06-24T00:39:52.132Z,3.70
2018-06-24T00:42:21.463Z,3.30
2018-06-24T00:44:50.601Z,3.63
2018-06-24T00:47:19.690Z,3.40
2018-06-24T00:49:48.843Z,4.07
2018-06-24T00:52:17.960Z,4.27
2018-06-24T00:54:47.961Z,4.47
2018-06-24T00:57:17.012Z,4.90
2018-06-24T00:59:57.598Z,3.80
2018-06-24T01:02:26.683Z,5.53
2018-06-24T01:04:55.752Z,6.10
2018-06-24T01:07:24.871Z,4.23
2018-06-24T01:09:53.950Z,4.73
2018-06-24T01:12:23.044Z,6.07
2018-06-24T01:14:52.123Z,4.63
2018-06-24T01:17:21.220Z,4.70
2018-06-24T01:19:50.324Z,6.20
2018-06-24T01:22:19.376Z,4.73
2018-06-24T01:24:48.418Z,5.40
2018-06-24T01:27:17.519Z,5.57
2018-06-24T01:29:46.614Z,5.40
2018-06-24T01:32:15.690Z,5.57
2018-06-24T01:34:44.816Z,5.30
2018-06-24T01:37:13.871Z,5.10
2018-06-24T01:39:42.959Z,4.90
2018-06-24T01:42:12.098Z,4.40
2018-06-24T01:44:41.249Z,5.50
2018-06-24T01:47:10.347Z,5.13
2018-06-24T01:49:39.414Z,4.30
2018-06-24T01:52:08.643Z,4.33
2018-06-24T01:54:37.714Z,5.00
2018-06-24T01:57:06.779Z,5.17
2018-06-24T01:59:36.951Z,5.33
2018-06-24T02:02:06.005Z,4.60
2018-06-24T02:04:35.087Z,4.97
2018-06-24T02:07:04.222Z,5.70
2018-06-24T02:09:33.268Z,5.20
2018-06-24T02:12:02.363Z,5.57
2018-06-24T02:14:31.431Z,5.67
2018-06-24T02:17:00.478Z,5.40
2018-06-24T02:19:29.574Z,6.67
2018-06-24T02:21:58.648Z,5.90
2018-06-24T02:24:27.815Z,6.20
2018-06-24T02:26:56.870Z,5.40
2018-06-24T02:29:25.951Z,5.90
2018-06-24T02:31:55.063Z,5.87
2018-06-24T02:34:24.108Z,5.53
2018-06-24T02:36:53.200Z,6.50
2018-06-24T02:39:22.287Z,6.03
2018-06-24T02:41:51.359Z,5.73
2018-06-24T02:44:20.403Z,5.27
2018-06-24T02:46:49.488Z,5.53
2018-06-24T02:49:18.547Z,6.10
2018-06-24T02:51:47.586Z,6.40
2018-06-24T02:54:16.650Z,6.17
2018-06-24T02:56:45.707Z,7.30
2018-06-24T02:59:14.764Z,7.53
2018-06-24T03:01:43.844Z,6.30
2018-06-24T03:04:12.908Z,5.97
2018-06-24T03:06:42.006Z,5.10
2018-06-24T03:09:11.719Z,5.30
2018-06-24T03:11:41.092Z,6.37
2018-06-24T03:14:10.124Z,8.03
2018-06-24T03:16:39.178Z,6.87
2018-06-24T03:19:08.252Z,6.23
2018-06-24T03:21:37.331Z,7.10
2018-06-24T03:24:06.440Z,6.40
2018-06-24T03:26:35.488Z,6.47
2018-06-24T03:29:04.592Z,6.50
2018-06-24T03:31:33.656Z,6.67
2018-06-24T03:34:02.722Z,6.60
2018-06-24T03:36:31.831Z,6.10
2018-06-24T03:39:00.911Z,6.40
2018-06-24T03:41:29.984Z,6.17
2018-06-24T03:43:59.059Z,6.20
2018-06-24T03:46:28.126Z,6.77
2018-06-24T03:48:57.236Z,5.47
2018-06-24T03:51:26.447Z,5.63
2018-06-24T03:53:55.535Z,6.60
2018-06-24T03:56:24.643Z,5.47
2018-06-24T03:58:53.708Z,5.90
2018-06-24T04:01:22.752Z,5.73
2018-06-24T04:03:51.677Z,4.73
2018-06-24T04:06:20.540Z,5.60
2018-06-24T04:08:49.665Z,5.20
2018-06-24T04:11:18.743Z,4.40
2018-06-24T04:13:49.083Z,5.97
2018-06-24T04:16:18.151Z,5.17
2018-06-24T04:18:47.239Z,5.10
2018-06-24T04:21:16.351Z,5.07
2018-06-24T04:23:45.785Z,4.90
2018-06-24T04:26:14.873Z,5.20
2018-06-24T04:28:43.958Z,5.43
2018-06-24T04:31:13.039Z,6.07
2018-06-24T04:33:42.174Z,5.37
2018-06-24T04:36:11.259Z,6.00
2018-06-24T04:38:40.094Z,6.00
2018-06-24T04:41:09.306Z,6.27
2018-06-24T04:43:38.540Z,4.80
2018-06-24T04:46:07.611Z,6.00
2018-06-24T04:48:36.727Z,5.53
2018-06-24T04:51:05.849Z,6.70
2018-06-24T04:53:34.634Z,5.70
2018-06-24T04:56:03.701Z,6.10
2018-06-24T04:58:32.780Z,5.13
2018-06-24T05:01:01.840Z,5.40
2018-06-24T05:03:30.947Z,5.53
2018-06-24T05:06:00.100Z,5.60
2018-06-24T05:08:29.227Z,4.90
2018-06-24T05:11:00.229Z,6.37
2018-06-24T05:13:29.307Z,5.60
2018-06-24T05:15:58.386Z,6.13
2018-06-24T05:18:27.496Z,4.63
2018-06-24T05:20:56.491Z,7.47
2018-06-24T05:23:25.597Z,6.87
2018-06-24T05:25:54.643Z,5.73
2018-06-24T05:28:23.690Z,6.53
2018-06-24T05:30:52.791Z,6.70
2018-06-24T05:33:21.879Z,6.10
2018-06-24T05:35:50.967Z,7.43
2018-06-24T05:38:20.079Z,5.97
2018-06-24T05:40:49.190Z,6.67
2018-06-24T05:43:18.302Z,5.60
2018-06-24T05:45:47.379Z,5.63
2018-06-24T05:48:16.454Z,6.20
2018-06-24T05:50:45.527Z,6.47
2018-06-24T05:53:14.595Z,5.97
2018-06-24T05:55:43.672Z,6.67
2018-06-24T05:58:12.713Z,6.63
2018-06-24T06:00:41.763Z,5.90
2018-06-24T06:03:10.844Z,6.13
2018-06-24T06:05:39.928Z,7.00
2018-06-24T06:08:09.020Z,6.30
2018-06-24T06:10:38.092Z,6.80
2018-06-24T06:13:07.266Z,6.40
2018-06-24T06:15:36.434Z,6.93
2018-06-24T06:18:05.515Z,5.90
2018-06-24T06:20:34.595Z,5.77
2018-06-24T06:23:03.702Z,6.83
2018-06-24T06:25:32.759Z,6.27
2018-06-24T06:28:02.098Z,6.60
2018-06-24T06:30:32.061Z,6.43
2018-06-24T06:33:01.143Z,7.23
2018-06-24T06:35:30.283Z,7.80
2018-06-24T06:37:59.360Z,6.43
2018-06-24T06:40:28.454Z,9.40
2018-06-24T06:42:57.522Z,7.00
2018-06-24T06:45:26.780Z,6.50
2018-06-24T06:47:55.727Z,7.80
2018-06-24T06:50:24.803Z,7.50
2018-06-24T06:52:54.088Z,7.43
2018-06-24T06:55:23.162Z,7.03
2018-06-24T06:57:52.260Z,9.20
2018-06-24T07:00:21.303Z,7.40
2018-06-24T07:02:50.332Z,7.77
2018-06-24T07:05:19.387Z,7.23
2018-06-24T07:07:48.479Z,7.57
2018-06-24T07:10:17.568Z,8.50
2018-06-24T07:12:46.681Z,9.83
2018-06-24T07:15:15.747Z,8.50
2018-06-24T07:17:44.566Z,9.27
2018-06-24T07:20:13.667Z,7.90
2018-06-24T07:22:42.791Z,7.60
2018-06-24T07:25:11.965Z,9.17
2018-06-24T07:27:41.070Z,9.10
2018-06-24T07:30:10.131Z,8.87
2018-06-24T07:32:39.240Z,9.17
2018-06-24T07:35:08.326Z,10.00
2018-06-24T07:37:37.410Z,9.27
2018-06-24T07:40:06.494Z,8.77
2018-06-24T07:42:35.592Z,8.73
2018-06-24T07:45:04.787Z,10.13
2018-06-24T07:47:33.883Z,9.00
2018-06-24T07:50:02.987Z,10.17
2018-06-24T07:52:32.064Z,9.63
2018-06-24T07:55:01.137Z,10.57
2018-06-24T07:57:30.269Z,9.40
2018-06-24T07:59:59.543Z,8.77
2018-06-24T08:02:28.675Z,9.50
2018-06-24T08:04:57.810Z,8.70
2018-06-24T08:07:26.938Z,9.17
2018-06-24T08:09:56.086Z,9.60
2018-06-24T08:12:25.268Z,9.63
2018-06-24T08:14:54.383Z,9.80
2018-06-24T08:17:23.523Z,10.43
2018-06-24T08:19:52.695Z,9.60
2018-06-24T08:22:21.807Z,11.13
2018-06-24T08:24:51.862Z,11.27
2018-06-24T08:27:20.975Z,10.37
2018-06-24T08:29:50.036Z,9.83
2018-06-24T08:32:19.117Z,10.00
2018-06-24T08:34:48.204Z,10.10
2018-06-24T08:37:17.928Z,9.23
2018-06-24T08:39:47.027Z,8.83
2018-06-24T08:42:16.132Z,10.07
2018-06-24T08:44:45.186Z,9.60
2018-06-24T08:47:14.302Z,8.43
2018-06-24T08:49:43.392Z,9.33
2018-06-24T08:52:12.431Z,9.23
2018-06-24T08:54:41.492Z,7.30
2018-06-24T08:57:10.326Z,7.60
2018-06-24T08:59:39.292Z,9.03
2018-06-24T09:02:08.371Z,9.10
2018-06-24T09:04:37.451Z,7.57
2018-06-24T09:07:08.277Z,7.97
2018-06-24T09:09:37.396Z,8.30
2018-06-24T09:12:06.874Z,8.70
2018-06-24T09:14:35.955Z,8.30
2018-06-24T09:17:05.355Z,8.07
2018-06-24T09:19:34.445Z,7.43
2018-06-24T09:22:03.701Z,7.40
2018-06-24T09:24:32.719Z,6.20
2018-06-24T09:27:02.003Z,7.47
2018-06-24T09:29:31.134Z,6.83
2018-06-24T09:32:00.318Z,7.60
2018-06-24T09:34:29.446Z,7.07
2018-06-24T09:36:58.531Z,8.50
2018-06-24T09:39:27.583Z,8.03
2018-06-24T09:41:56.650Z,7.80
2018-06-24T09:44:25.735Z,7.37
2018-06-24T09:46:54.797Z,8.20
2018-06-24T09:49:23.896Z,10.17
2018-06-24T09:51:52.960Z,8.87
2018-06-24T09:54:22.063Z,7.87
2018-06-24T09:56:51.240Z,8.60
2018-06-24T09:59:20.399Z,7.83
2018-06-24T10:01:49.567Z,8.20
2018-06-24T10:04:18.647Z,7.37
2018-06-24T10:06:47.804Z,7.20
2018-06-24T10:09:16.877Z,6.20
2018-06-24T10:11:46.022Z,6.70
2018-06-24T10:14:15.086Z,6.93
2018-06-24T10:16:44.159Z,5.70
2018-06-24T10:19:13.273Z,6.33
2018-06-24T10:21:42.348Z,5.93
2018-06-24T10:24:11.420Z,6.00
2018-06-24T10:26:40.484Z,7.70
2018-06-24T10:29:09.570Z,6.03
2018-06-24T10:31:38.621Z,6.50
2018-06-24T10:34:07.717Z,5.20
2018-06-24T10:36:36.772Z,5.10
2018-06-24T10:39:08.476Z,6.40
2018-06-24T10:41:37.563Z,5.20
2018-06-24T10:44:07.877Z,5.60
2018-06-24T10:46:36.964Z,6.80
2018-06-24T10:49:06.032Z,5.40
2018-06-24T10:51:35.118Z,4.77
2018-06-24T10:54:04.262Z,4.80
2018-06-24T10:56:33.367Z,4.73
2018-06-24T10:59:02.436Z,5.23
2018-06-24T11:01:31.535Z,8.43
2018-06-24T11:04:00.578Z,6.60
2018-06-24T11:06:29.659Z,4.90
2018-06-24T11:08:58.771Z,6.40
2018-06-24T11:11:27.856Z,5.67
2018-06-24T11:13:56.939Z,6.70
2018-06-24T11:16:26.050Z,7.77
2018-06-24T11:18:55.231Z,7.43
2018-06-24T11:21:24.348Z,7.37
2018-06-24T11:23:53.477Z,8.70
2018-06-24T11:26:22.523Z,11.67
2018-06-24T11:28:51.636Z,8.10
2018-06-24T11:31:20.699Z,7.37
2018-06-24T11:33:50.283Z,7.63
2018-06-24T11:36:19.360Z,7.33
2018-06-24T11:38:48.409Z,8.37
2018-06-24T11:41:17.501Z,7.30
2018-06-24T11:43:46.560Z,8.10
2018-06-24T11:46:15.710Z,8.07
2018-06-24T11:48:45.387Z,8.67
2018-06-24T11:51:14.432Z,7.50
2018-06-24T11:53:43.622Z,7.20
2018-06-24T11:56:12.683Z,6.67
2018-06-24T11:58:41.826Z,5.90
2018-06-24T12:01:10.875Z,5.83
2018-06-24T12:03:39.918Z,5.40
2018-06-24T12:06:09.041Z,5.90
2018-06-24T12:08:38.107Z,6.63
2018-06-24T12:11:07.175Z,6.83
2018-06-24T12:13:36.291Z,5.60
2018-06-24T12:16:05.531Z,6.20
2018-06-24T12:18:34.596Z,5.73
2018-06-24T12:21:03.685Z,6.30
2018-06-24T12:23:32.759Z,5.63
2018-06-24T12:26:02.236Z,6.10
2018-06-24T12:28:31.338Z,5.00
2018-06-24T12:31:00.465Z,6.00
2018-06-24T12:33:29.598Z,7.07
2018-06-24T12:35:58.649Z,5.40
2018-06-24T12:38:27.726Z,5.03
2018-06-24T12:40:56.841Z,5.63
2018-06-24T12:43:25.958Z,6.80
2018-06-24T12:45:54.972Z,7.13
2018-06-24T12:48:24.091Z,7.70
2018-06-24T12:50:53.140Z,8.20
2018-06-24T12:53:22.227Z,7.70
2018-06-24T12:55:51.324Z,7.77
2018-06-24T12:58:20.474Z,8.03
2018-06-24T13:00:50.255Z,7.57
2018-06-24T13:03:18.638Z,5.80
2018-06-24T13:05:47.721Z,6.47
2018-06-24T13:08:16.836Z,6.00
2018-06-24T13:10:45.903Z,5.63
2018-06-24T13:13:15.007Z,5.20
2018-06-24T13:15:44.177Z,5.70
2018-06-24T13:18:13.218Z,5.27
2018-06-24T13:20:42.372Z,5.03
2018-06-24T13:23:11.495Z,4.80
2018-06-24T13:25:40.590Z,5.60
2018-06-24T13:28:09.655Z,4.70
2018-06-24T13:30:38.718Z,6.17
2018-06-24T13:33:07.804Z,5.50
2018-06-24T13:35:36.930Z,5.40
2018-06-24T13:38:06.002Z,4.73
2018-06-24T13:40:35.112Z,5.10
2018-06-24T13:43:04.299Z,5.60
2018-06-24T13:45:33.383Z,6.60
2018-06-24T13:48:02.539Z,5.77
2018-06-24T13:50:31.665Z,5.40
2018-06-24T13:53:00.759Z,5.63
2018-06-24T13:55:29.841Z,5.83
2018-06-24T13:57:58.732Z,5.93
2018-06-24T14:00:27.638Z,4.63
2018-06-24T14:02:56.967Z,4.47
2018-06-24T14:05:26.180Z,4.30
2018-06-24T14:07:55.325Z,3.93
2018-06-24T14:10:24.433Z,4.20
2018-06-24T14:12:53.553Z,3.93
2018-06-24T14:15:22.667Z,3.40
2018-06-24T14:17:51.750Z,3.97
2018-06-24T14:20:21.012Z,5.77
2018-06-24T14:22:50.177Z,3.67
2018-06-24T14:25:19.257Z,3.90
2018-06-24T14:27:48.406Z,4.23
2018-06-24T14:30:17.491Z,5.70
2018-06-24T14:32:46.758Z,5.50
2018-06-24T14:35:16.003Z,7.40
2018-06-24T14:37:45.084Z,6.60
2018-06-24T14:40:14.163Z,6.33
2018-06-24T14:42:43.247Z,6.43
2018-06-24T14:45:12.078Z,4.03
2018-06-24T14:47:40.768Z,6.23
2018-06-24T14:50:09.773Z,5.70
2018-06-24T14:52:38.861Z,5.70
2018-06-24T14:55:08.130Z,4.43
2018-06-24T14:57:37.323Z,4.50
2018-06-24T15:00:06.147Z,5.57
2018-06-24T15:02:39.352Z,5.67
2018-06-24T15:05:08.783Z,5.60
2018-06-24T15:07:37.935Z,5.80
2018-06-24T15:10:07.122Z,5.50
2018-06-24T15:12:36.239Z,6.77
2018-06-24T15:15:05.308Z,7.27
2018-06-24T15:17:34.471Z,6.40
2018-06-24T15:20:03.645Z,6.57
2018-06-24T15:22:32.763Z,6.83
2018-06-24T15:25:01.895Z,6.83
2018-06-24T15:27:30.948Z,6.53
2018-06-24T15:30:00.111Z,4.10
2018-06-24T15:32:29.179Z,5.20
2018-06-24T15:34:58.307Z,5.57
2018-06-24T15:37:27.390Z,7.47
2018-06-24T15:39:56.451Z,5.87
2018-06-24T15:42:25.555Z,6.57
2018-06-24T15:44:54.639Z,6.27
2018-06-24T15:47:23.517Z,6.70
2018-06-24T15:49:52.784Z,6.60
2018-06-24T15:52:21.899Z,5.43
2018-06-24T15:54:51.079Z,5.90
2018-06-24T15:57:20.198Z,5.60
2018-06-24T15:59:49.433Z,5.00
2018-06-24T16:02:18.581Z,5.00
2018-06-24T16:04:47.767Z,5.47
2018-06-24T16:07:16.966Z,8.17
2018-06-24T16:09:46.098Z,6.13
2018-06-24T16:12:15.201Z,7.40
2018-06-24T16:14:44.328Z,7.43
2018-06-24T16:17:13.459Z,8.63
2018-06-24T16:19:42.551Z,9.07
2018-06-24T16:22:11.750Z,9.37
2018-06-24T16:24:40.878Z,10.40
2018-06-24T16:27:09.975Z,10.20
2018-06-24T16:29:38.816Z,10.00
2018-06-24T16:32:07.790Z,9.50
2018-06-24T16:34:36.907Z,9.27
2018-06-24T16:37:05.989Z,8.73
2018-06-24T16:39:35.106Z,7.13
2018-06-24T16:42:04.296Z,6.80
2018-06-24T16:44:33.382Z,6.97
2018-06-24T16:47:02.495Z,6.30
2018-06-24T16:49:31.632Z,7.10
2018-06-24T16:52:00.726Z,5.60
2018-06-24T16:54:29.852Z,5.90
2018-06-24T16:56:59.011Z,6.90
2018-06-24T16:59:28.080Z,6.17
2018-06-24T17:01:57.158Z,7.13
2018-06-24T17:04:26.276Z,7.20
2018-06-24T17:06:55.608Z,8.20
2018-06-24T17:09:24.885Z,8.80
2018-06-24T17:11:54.000Z,9.70
2018-06-24T17:14:23.108Z,8.50
2018-06-24T17:16:52.185Z,8.57
2018-06-24T17:19:21.302Z,10.17
2018-06-24T17:21:50.409Z,9.23
2018-06-24T17:24:19.622Z,10.57
2018-06-24T17:26:48.686Z,10.67
2018-06-24T17:29:17.779Z,9.90
2018-06-24T17:31:46.873Z,10.23
2018-06-24T17:34:16.008Z,10.03
2018-06-24T17:36:45.354Z,9.80
2018-06-24T17:39:14.503Z,10.97
2018-06-24T17:41:45.952Z,8.17
2018-06-24T17:44:15.691Z,8.53
2018-06-24T17:46:44.793Z,9.97
2018-06-24T17:49:14.059Z,8.70
2018-06-24T17:51:43.491Z,8.20
2018-06-24T17:54:12.557Z,8.43
2018-06-24T17:56:41.632Z,7.77
2018-06-24T17:59:10.782Z,6.70
2018-06-24T18:01:39.864Z,6.37
2018-06-24T18:04:08.975Z,6.20
2018-06-24T18:06:38.092Z,7.47
2018-06-24T18:09:09.298Z,7.47
2018-06-24T18:11:38.884Z,6.67
2018-06-24T18:14:08.313Z,6.20
2018-06-24T18:16:37.433Z,5.10
2018-06-24T18:19:06.543Z,5.33
2018-06-24T18:21:35.636Z,4.57
2018-06-24T18:24:05.302Z,4.80
2018-06-24T18:26:34.403Z,4.23
2018-06-24T18:29:03.556Z,4.47
2018-06-24T18:31:32.644Z,4.67
2018-06-24T18:34:02.632Z,4.30
2018-06-24T18:36:31.736Z,5.07
2018-06-24T18:39:00.829Z,3.40
2018-06-24T18:41:29.976Z,5.33
2018-06-24T18:43:59.390Z,4.90
2018-06-24T18:46:29.982Z,5.10
2018-06-24T18:48:59.331Z,4.67
2018-06-24T18:51:28.639Z,4.10
2018-06-24T18:53:57.915Z,5.20
2018-06-24T18:56:27.083Z,5.30
2018-06-24T18:58:56.269Z,4.43
2018-06-24T19:01:25.528Z,4.13
2018-06-24T19:03:54.707Z,4.60
2018-06-24T19:06:24.042Z,4.13
2018-06-24T19:08:53.548Z,4.63
2018-06-24T19:11:23.674Z,5.03
2018-06-24T19:13:52.867Z,5.30
2018-06-24T19:16:22.387Z,5.63
2018-06-24T19:18:51.592Z,5.57
2018-06-24T19:21:20.736Z,6.07
2018-06-24T19:23:49.904Z,6.17
2018-06-24T19:26:19.088Z,5.30
2018-06-24T19:28:48.215Z,6.60
2018-06-24T19:31:17.347Z,5.57
2018-06-24T19:33:46.624Z,6.73
2018-06-24T19:36:16.327Z,6.03
2018-06-24T19:38:45.539Z,5.83
2018-06-24T19:41:16.884Z,6.00
2018-06-24T19:43:46.026Z,5.57
2018-06-24T19:46:15.163Z,5.83
2018-06-24T19:48:44.768Z,6.10
2018-06-24T19:51:14.997Z,6.20
2018-06-24T19:53:44.212Z,5.27
2018-06-24T19:56:13.324Z,4.97
2018-06-24T19:58:42.437Z,6.23
2018-06-24T20:01:11.606Z,5.83
2018-06-24T20:03:40.704Z,6.23
2018-06-24T20:06:09.847Z,5.57
2018-06-24T20:08:39.768Z,5.47
2018-06-24T20:11:08.914Z,6.27
2018-06-24T20:13:38.038Z,6.23
2018-06-24T20:16:07.163Z,5.67
2018-06-24T20:18:37.183Z,5.43
2018-06-24T20:21:06.378Z,5.93
2018-06-24T20:23:35.462Z,5.90
2018-06-24T20:26:04.840Z,6.57
2018-06-24T20:28:33.739Z,7.10
2018-06-24T20:31:02.776Z,5.87
2018-06-24T20:33:32.867Z,6.80
2018-06-24T20:36:02.023Z,6.50
2018-06-24T20:38:31.144Z,5.83
2018-06-24T20:41:00.922Z,6.17
2018-06-24T20:43:30.009Z,6.10
2018-06-24T20:45:59.126Z,5.47
2018-06-24T20:48:28.248Z,6.50
2018-06-24T20:50:57.405Z,6.73
2018-06-24T20:53:26.512Z,5.57
2018-06-24T20:55:55.614Z,5.90
2018-06-24T20:58:24.727Z,5.13
2018-06-24T21:00:53.854Z,5.27
2018-06-24T21:03:22.941Z,6.00
2018-06-24T21:05:52.054Z,5.80
2018-06-24T21:08:21.143Z,5.40
2018-06-24T21:10:50.489Z,5.80
2018-06-24T21:13:19.580Z,6.30
2018-06-24T21:15:48.713Z,6.23
2018-06-24T21:18:17.801Z,4.87
2018-06-24T21:20:46.881Z,5.10
2018-06-24T21:23:15.994Z,5.10
2018-06-24T21:25:45.047Z,4.27
2018-06-24T21:28:14.147Z,4.50
2018-06-24T21:30:43.246Z,4.00
2018-06-24T21:33:12.402Z,4.53
2018-06-24T21:35:41.480Z,5.00
2018-06-24T21:38:10.679Z,4.77
2018-06-24T21:40:39.739Z,5.00
2018-06-24T21:43:09.038Z,4.93
2018-06-24T21:45:38.119Z,4.70
2018-06-24T21:48:07.628Z,4.33
2018-06-24T21:50:36.692Z,5.17
2018-06-24T21:53:05.935Z,4.57
2018-06-24T21:55:35.003Z,5.50
2018-06-24T21:58:04.511Z,5.27
2018-06-24T22:00:33.646Z,4.87
2018-06-24T22:03:02.715Z,5.47
2018-06-24T22:05:31.792Z,5.50
2018-06-24T22:08:00.937Z,5.43
2018-06-24T22:10:30.069Z,4.53
2018-06-24T22:12:59.138Z,5.17
2018-06-24T22:15:28.469Z,5.87
2018-06-24T22:17:57.666Z,5.83
2018-06-24T22:20:26.763Z,5.93
2018-06-24T22:22:55.882Z,5.40
2018-06-24T22:25:25.075Z,6.23
2018-06-24T22:27:54.161Z,5.60
2018-06-24T22:30:23.282Z,6.17
2018-06-24T22:32:52.623Z,5.70
2018-06-24T22:35:21.698Z,6.40
2018-06-24T22:37:50.920Z,6.10
2018-06-24T22:40:19.995Z,5.67
2018-06-24T22:42:49.095Z,5.33
2018-06-24T22:45:18.169Z,6.93
2018-06-24T22:47:47.244Z,6.57
2018-06-24T22:50:16.339Z,7.47
2018-06-24T22:52:45.441Z,6.40
2018-06-24T22:55:14.527Z,5.90
2018-06-24T22:57:43.588Z,6.50
2018-06-24T23:00:17.040Z,6.03
2018-06-24T23:02:46.481Z,5.90
2018-06-24T23:05:15.568Z,5.80
2018-06-24T23:07:45.299Z,5.07
2018-06-24T23:10:14.824Z,6.30
2018-06-24T23:12:43.988Z,6.40
2018-06-24T23:15:13.141Z,5.73
2018-06-24T23:17:42.265Z,6.30
2018-06-24T23:20:11.328Z,6.40
2018-06-24T23:22:40.456Z,6.20
2018-06-24T23:25:09.538Z,7.30
2018-06-24T23:27:38.644Z,5.50
2018-06-24T23:30:07.978Z,6.90
2018-06-24T23:32:37.073Z,5.67
2018-06-24T23:35:06.203Z,6.30
2018-06-24T23:37:35.307Z,6.50
2018-06-24T23:40:04.588Z,6.83
2018-06-24T23:42:33.663Z,6.63
2018-06-24T23:45:02.756Z,5.63
2018-06-24T23:47:31.904Z,6.40
2018-06-24T23:50:00.959Z,7.20
2018-06-24T23:52:30.064Z,5.40
2018-06-24T23:54:59.117Z,7.30
2018-06-24T23:57:28.313Z,6.10
2018-06-24T23:59:57.167Z,6.93
